Time;durP1;ratioP1;P1;durP2;ratioP2;P2;SDS_P1;SDS_P2;PMS_P1;PMS_P2;Temp;Humidity;BMP_temperature;BMP_pressure;BME280_temperature;BME280_humidity;BME280_pressure;Samples;Min_cycle;Max_cycle;Signal;HPM_P1;HPM_P2
2023/06/13 00:01:53;;;;;;;2.28;1.42;;;18.90;99.90;;;;;;4997423;28;20037;-69
2023/06/13 00:04:23;;;;;;;3.15;1.30;;;18.80;99.90;;;;;;5031998;28;20387;-69
2023/06/13 00:06:50;;;;;;;4.20;1.60;;;18.70;99.90;;;;;;4997195;28;20562;-68
2023/06/13 00:09:18;;;;;;;6.57;1.55;;;18.70;99.90;;;;;;4981342;28;20060;-69
2023/06/13 00:11:46;;;;;;;5.53;1.52;;;18.60;99.90;;;;;;5030155;28;20412;-68
2023/06/13 00:14:12;;;;;;;4.68;1.63;;;18.60;99.90;;;;;;4981249;28;20561;-68
2023/06/13 00:16:39;;;;;;;5.75;1.63;;;18.50;99.90;;;;;;4981088;28;20542;-69
2023/06/13 00:19:05;;;;;;;6.63;2.20;;;18.50;99.90;;;;;;5014710;28;20196;-68
2023/06/13 00:21:32;;;;;;;3.38;1.60;;;18.50;99.90;;;;;;5013483;28;20139;-68
2023/06/13 00:23:58;;;;;;;3.20;1.83;;;18.40;99.90;;;;;;4998053;28;20057;-68
2023/06/13 00:26:23;;;;;;;6.65;1.55;;;18.40;99.90;;;;;;4980186;28;20262;-69
2023/06/13 00:28:49;;;;;;;2.38;1.48;;;18.40;99.90;;;;;;5013549;28;20441;-69
2023/06/13 00:31:16;;;;;;;6.47;1.88;;;18.40;99.90;;;;;;5030502;28;20146;-67
2023/06/13 00:33:43;;;;;;;4.20;1.70;;;18.40;99.90;;;;;;4981715;28;20045;-69
2023/06/13 00:36:09;;;;;;;4.60;1.70;;;18.30;99.90;;;;;;4997127;28;20052;-67
2023/06/13 00:38:36;;;;;;;3.17;1.70;;;18.20;99.90;;;;;;4997513;28;20446;-68
2023/06/13 00:41:02;;;;;;;4.28;1.83;;;18.20;99.90;;;;;;4996945;28;20128;-69
2023/06/13 00:43:28;;;;;;;4.50;2.00;;;18.10;99.90;;;;;;4977927;28;20057;-68
2023/06/13 00:45:55;;;;;;;7.97;2.17;;;18.00;99.90;;;;;;4998872;28;20033;-68
2023/06/13 00:48:21;;;;;;;5.85;2.10;;;17.90;99.90;;;;;;4978805;28;20037;-68
2023/06/13 00:50:47;;;;;;;5.32;1.83;;;17.80;99.90;;;;;;4998903;28;20053;-68
2023/06/13 00:53:19;;;;;;;4.47;2.08;;;17.80;99.90;;;;;;4998189;28;20075;-69
2023/06/13 00:55:46;;;;;;;5.00;1.88;;;17.70;99.90;;;;;;4982408;28;20555;-68
2023/06/13 00:58:13;;;;;;;5.75;2.03;;;17.70;99.90;;;;;;5015684;28;20419;-70
2023/06/13 01:00:40;;;;;;;4.90;2.10;;;17.70;99.90;;;;;;4997864;28;20626;-69
2023/06/13 01:03:14;;;;;;;7.28;2.15;;;17.60;99.90;;;;;;4982102;28;20507;-68
2023/06/13 01:05:41;;;;;;;3.80;2.17;;;17.60;99.90;;;;;;4998696;28;20590;-68
2023/06/13 01:08:17;;;;;;;6.72;2.05;;;17.60;99.90;;;;;;4999669;28;20107;-69
2023/06/13 01:10:47;;;;;;;4.80;2.08;;;17.60;99.90;;;;;;4997396;28;20630;-68
2023/06/13 01:13:21;;;;;;;4.82;2.50;;;17.60;99.90;;;;;;5030842;28;20805;-68
2023/06/13 01:16:08;;;;;;;4.82;1.92;;;17.50;99.90;;;;;;5014036;28;20059;-69
2023/06/13 01:18:38;;;;;;;5.60;2.25;;;17.50;99.90;;;;;;5000596;28;20214;-69
2023/06/13 01:21:05;;;;;;;4.50;2.30;;;17.50;99.90;;;;;;5014797;28;20204;-68
2023/06/13 01:23:44;;;;;;;4.57;2.17;;;17.40;99.90;;;;;;5030408;28;20052;-69
2023/06/13 01:26:27;;;;;;;4.55;1.90;;;17.40;99.90;;;;;;4998169;28;20116;-68
2023/06/13 01:28:55;;;;;;;4.15;2.25;;;17.50;99.90;;;;;;5032390;28;20861;-68
2023/06/13 01:31:23;;;;;;;4.85;2.22;;;17.40;99.90;;;;;;4998124;28;20033;-68
2023/06/13 01:33:50;;;;;;;6.70;2.13;;;17.40;99.90;;;;;;5030714;28;20037;-68
2023/06/13 01:36:16;;;;;;;3.50;2.00;;;17.50;99.90;;;;;;4980357;28;20042;-69
2023/06/13 01:38:42;;;;;;;3.55;2.25;;;17.50;99.90;;;;;;4996819;28;20047;-68
2023/06/13 01:41:08;;;;;;;5.43;2.22;;;17.50;99.90;;;;;;5012313;28;20049;-68
2023/06/13 01:43:34;;;;;;;4.50;2.15;;;17.60;99.90;;;;;;5014876;28;20067;-67
2023/06/13 01:46:07;;;;;;;2.78;2.05;;;17.70;99.90;;;;;;5031736;28;20037;-68
2023/06/13 01:48:36;;;;;;;;;;;17.70;99.90;;;;;;5030497;28;20037;-68
2023/06/13 01:51:18;;;;;;;6.65;2.00;;;17.70;99.90;;;;;;4996713;28;20301;-67
2023/06/13 01:53:50;;;;;;;3.38;2.00;;;17.70;99.90;;;;;;4997283;28;20103;-69
2023/06/13 01:56:19;;;;;;;4.95;2.38;;;17.70;99.90;;;;;;4999427;28;20138;-68
2023/06/13 01:58:44;;;;;;;3.35;2.10;;;17.80;99.90;;;;;;4998053;28;20453;-68
2023/06/13 02:01:10;;;;;;;3.03;1.90;;;17.70;99.90;;;;;;5015428;28;20038;-68
2023/06/13 02:03:37;;;;;;;7.53;2.55;;;17.70;99.90;;;;;;4997662;28;20116;-68
2023/06/13 02:06:03;;;;;;;5.05;2.55;;;17.80;99.90;;;;;;4997096;28;20259;-69
2023/06/13 02:08:30;;;;;;;6.30;2.20;;;17.80;99.90;;;;;;4983241;28;20049;-69
2023/06/13 02:10:56;;;;;;;5.65;2.42;;;17.80;99.90;;;;;;5013131;28;20484;-68
2023/06/13 02:13:22;;;;;;;5.18;2.72;;;17.80;99.90;;;;;;5013393;28;20644;-68
2023/06/13 02:15:48;;;;;;;4.82;2.42;;;17.70;99.90;;;;;;4997353;28;20091;-69
2023/06/13 02:18:15;;;;;;;6.60;2.75;;;17.70;99.90;;;;;;4998396;28;20053;-69
2023/06/13 02:20:41;;;;;;;6.22;2.67;;;17.80;99.90;;;;;;5014532;28;20125;-68
2023/06/13 02:23:06;;;;;;;8.07;3.00;;;17.70;99.90;;;;;;4981619;28;20049;-69
2023/06/13 02:25:33;;;;;;;7.03;3.10;;;17.60;99.90;;;;;;4995760;28;20040;-68
2023/06/13 02:27:59;;;;;;;6.55;3.28;;;17.60;99.90;;;;;;4996986;28;20044;-68
2023/06/13 02:30:25;;;;;;;6.72;3.00;;;17.50;99.90;;;;;;5012282;28;20052;-70
2023/06/13 02:32:52;;;;;;;4.28;2.60;;;17.50;99.90;;;;;;4996157;28;20045;-70
2023/06/13 02:35:22;;;;;;;7.57;2.78;;;17.50;99.90;;;;;;4996568;28;20614;-69
2023/06/13 02:37:50;;;;;;;5.53;3.08;;;17.50;99.90;;;;;;4997654;28;20100;-70
2023/06/13 02:40:16;;;;;;;4.43;2.45;;;17.50;99.90;;;;;;5011667;28;20044;-69
2023/06/13 02:42:45;;;;;;;3.95;2.20;;;17.40;99.90;;;;;;5030154;28;20045;-69
2023/06/13 02:45:11;;;;;;;4.85;2.25;;;17.20;99.90;;;;;;5021527;28;20379;-69
2023/06/13 02:47:36;;;;;;;4.43;2.40;;;16.90;99.90;;;;;;5029878;28;20102;-70
2023/06/13 02:50:02;;;;;;;4.15;2.40;;;16.70;99.90;;;;;;4999794;28;20337;-69
2023/06/13 02:52:28;;;;;;;5.85;2.55;;;16.60;99.90;;;;;;5016317;28;20051;-70
2023/06/13 02:54:54;;;;;;;4.97;2.03;;;16.40;99.90;;;;;;5032194;28;20041;-68
2023/06/13 02:57:19;;;;;;;6.38;2.00;;;16.30;99.90;;;;;;4984877;28;20297;-69
2023/06/13 02:59:47;;;;;;;7.32;2.15;;;16.20;99.90;;;;;;5016166;28;20517;-70
2023/06/13 03:02:13;;;;;;;5.68;2.55;;;16.10;99.90;;;;;;4997922;28;20275;-69
2023/06/13 03:04:39;;;;;;;5.07;2.10;;;16.00;99.90;;;;;;4979956;28;20357;-70
2023/06/13 03:07:05;;;;;;;7.45;2.05;;;16.00;99.90;;;;;;5000074;28;20447;-70
2023/06/13 03:09:32;;;;;;;7.13;2.42;;;16.00;99.90;;;;;;5016565;28;20514;-70
2023/06/13 03:11:59;;;;;;;3.50;2.33;;;15.90;99.90;;;;;;5032255;28;20144;-71
2023/06/13 03:14:25;;;;;;;3.53;2.30;;;15.90;99.90;;;;;;5017825;28;20050;-70
2023/06/13 03:16:52;;;;;;;5.38;2.10;;;15.90;99.90;;;;;;4980473;28;20041;-71
2023/06/13 03:19:18;;;;;;;4.47;2.10;;;15.90;99.90;;;;;;5000132;28;20490;-69
2023/06/13 03:21:44;;;;;;;5.40;2.25;;;15.90;99.90;;;;;;4996672;28;20040;-69
2023/06/13 03:24:10;;;;;;;4.30;2.38;;;15.80;99.90;;;;;;4982943;28;20049;-70
2023/06/13 03:26:38;;;;;;;3.40;2.10;;;15.80;99.90;;;;;;4984650;28;20048;-69
2023/06/13 03:29:05;;;;;;;4.15;2.20;;;15.80;99.90;;;;;;5015361;28;20057;-71
2023/06/13 03:31:30;;;;;;;5.82;2.47;;;15.80;99.90;;;;;;4999360;28;20040;-71
2023/06/13 03:33:56;;;;;;;4.45;2.20;;;15.80;99.90;;;;;;5001932;28;20428;-69
2023/06/13 03:36:22;;;;;;;4.53;1.90;;;15.70;99.90;;;;;;4997688;28;20944;-69
2023/06/13 03:38:48;;;;;;;3.28;1.50;;;15.70;99.90;;;;;;5002280;28;20478;-68
2023/06/13 03:41:14;;;;;;;5.50;2.10;;;15.70;99.90;;;;;;5000640;28;20255;-69
2023/06/13 03:43:40;;;;;;;6.80;3.05;;;15.70;99.90;;;;;;4982585;28;20064;-70
2023/06/13 03:46:06;;;;;;;3.63;1.80;;;15.70;99.90;;;;;;4999494;28;20125;-69
2023/06/13 03:48:31;;;;;;;5.07;1.95;;;15.70;99.90;;;;;;5032590;28;20047;-69
2023/06/13 03:50:57;;;;;;;4.30;2.22;;;15.70;99.90;;;;;;4984188;28;20080;-69
2023/06/13 03:53:23;;;;;;;4.93;2.05;;;15.70;99.90;;;;;;5000332;28;20061;-70
2023/06/13 03:55:49;;;;;;;4.22;1.77;;;15.70;99.90;;;;;;5000158;28;20045;-70
2023/06/13 03:58:15;;;;;;;5.70;2.05;;;15.70;99.90;;;;;;4995483;28;20049;-70
2023/06/13 04:00:44;;;;;;;3.28;2.10;;;15.70;99.90;;;;;;5016152;28;20044;-69
2023/06/13 04:03:10;;;;;;;4.13;1.90;;;15.70;99.90;;;;;;4999971;28;20296;-70
2023/06/13 04:05:36;;;;;;;4.30;1.92;;;15.80;99.90;;;;;;5001170;28;20368;-69
2023/06/13 04:08:03;;;;;;;4.03;1.98;;;15.90;99.90;;;;;;5000701;28;20111;-68
2023/06/13 04:10:30;;;;;;;4.45;1.85;;;15.90;99.90;;;;;;4999472;28;20072;-70
2023/06/13 04:12:56;;;;;;;5.95;2.20;;;16.00;99.90;;;;;;5031738;28;20041;-69
2023/06/13 04:15:22;;;;;;;1.65;1.48;;;16.00;99.90;;;;;;5015303;28;20048;-70
2023/06/13 04:17:48;;;;;;;2.75;1.65;;;16.00;99.90;;;;;;5000433;28;20037;-69
2023/06/13 04:20:14;;;;;;;3.83;1.70;;;16.20;99.90;;;;;;5000678;28;20041;-70
2023/06/13 04:22:44;;;;;;;5.07;1.92;;;16.30;99.90;;;;;;5014770;28;20128;-70
2023/06/13 04:25:10;;;;;;;4.05;1.90;;;16.30;99.90;;;;;;4980350;28;20400;-69
2023/06/13 04:27:36;;;;;;;5.50;1.70;;;16.20;99.90;;;;;;5014086;28;20039;-69
2023/06/13 04:30:02;;;;;;;5.47;1.90;;;16.20;99.90;;;;;;4997062;28;20879;-70
2023/06/13 04:32:28;;;;;;;4.55;1.50;;;16.20;99.90;;;;;;4981674;28;20085;-68
2023/06/13 04:34:55;;;;;;;3.92;1.85;;;16.20;99.90;;;;;;4980331;28;20064;-68
2023/06/13 04:37:25;;;;;;;2.45;2.10;;;16.20;99.90;;;;;;5010084;28;20084;-69
2023/06/13 04:39:55;;;;;;;4.05;1.90;;;16.30;99.90;;;;;;4996960;28;20108;-68
2023/06/13 04:42:27;;;;;;;4.03;1.77;;;16.40;99.90;;;;;;4996173;28;20037;-69
2023/06/13 04:45:01;;;;;;;5.25;1.70;;;16.40;99.90;;;;;;4999074;28;20041;-70
2023/06/13 04:47:29;;;;;;;3.78;1.25;;;16.40;99.90;;;;;;4998253;28;20053;-69
2023/06/13 04:49:58;;;;;;;3.88;1.58;;;16.40;99.90;;;;;;5022418;28;20330;-69
2023/06/13 04:52:35;;;;;;;3.45;2.00;;;16.30;99.90;;;;;;4977644;28;20656;-69
2023/06/13 04:55:02;;;;;;;2.58;1.67;;;16.30;99.90;;;;;;4983065;28;20329;-70
2023/06/13 04:57:28;;;;;;;4.05;1.90;;;16.30;99.90;;;;;;4998238;28;20041;-70
2023/06/13 04:59:59;;;;;;;4.60;1.70;;;16.30;99.90;;;;;;4979189;28;20055;-69
2023/06/13 05:02:25;;;;;;;4.55;1.80;;;16.30;99.90;;;;;;4996072;28;20041;-70
2023/06/13 05:04:55;;;;;;;4.43;1.65;;;16.40;99.90;;;;;;4996769;28;20042;-70
2023/06/13 05:07:21;;;;;;;4.63;1.75;;;16.40;99.90;;;;;;4981166;28;20059;-70
2023/06/13 05:09:48;;;;;;;4.18;1.70;;;16.50;99.90;;;;;;4996916;28;20053;-69
2023/06/13 05:12:13;;;;;;;5.18;1.73;;;16.50;99.90;;;;;;4978643;28;20041;-70
2023/06/13 05:14:42;;;;;;;3.83;1.20;;;16.50;99.90;;;;;;4979559;28;20052;-70
2023/06/13 05:17:09;;;;;;;3.70;1.40;;;16.50;99.90;;;;;;4998246;28;20314;-70
2023/06/13 05:19:37;;;;;;;4.45;1.70;;;16.50;99.90;;;;;;4981221;28;20045;-70
2023/06/13 05:22:05;;;;;;;6.28;1.50;;;16.60;99.90;;;;;;4997766;28;20372;-69
2023/06/13 05:24:31;;;;;;;2.90;1.58;;;16.60;99.90;;;;;;4980581;28;20045;-70
2023/06/13 05:26:58;;;;;;;3.70;1.80;;;16.70;99.90;;;;;;4996075;28;20373;-70
2023/06/13 05:29:24;;;;;;;3.08;1.73;;;16.90;99.90;;;;;;4999544;28;20079;-71
2023/06/13 05:31:50;;;;;;;5.10;1.73;;;17.30;99.90;;;;;;4996960;28;20069;-70
2023/06/13 05:34:16;;;;;;;4.65;1.98;;;17.70;99.90;;;;;;4996398;28;20136;-70
2023/06/13 05:36:41;;;;;;;4.78;1.77;;;18.00;99.90;;;;;;4997019;28;20036;-70
2023/06/13 05:39:08;;;;;;;7.68;1.75;;;18.30;99.90;;;;;;5029019;28;20515;-69
2023/06/13 05:41:34;;;;;;;3.95;1.75;;;18.50;99.90;;;;;;4978809;28;20059;-70
2023/06/13 05:44:00;;;;;;;3.17;1.65;;;18.70;99.90;;;;;;4980207;28;20543;-70
2023/06/13 05:46:26;;;;;;;3.75;1.67;;;18.70;99.90;;;;;;4978587;28;20107;-70
2023/06/13 05:48:51;;;;;;;6.95;1.58;;;18.90;99.90;;;;;;4996089;28;20037;-69
2023/06/13 05:51:17;;;;;;;3.17;1.50;;;18.90;99.90;;;;;;4997777;28;20041;-69
2023/06/13 05:53:43;;;;;;;5.68;1.58;;;19.10;99.90;;;;;;5018003;28;20150;-67
2023/06/13 05:56:09;;;;;;;3.30;1.42;;;19.20;99.90;;;;;;4979208;28;20244;-68
2023/06/13 05:58:35;;;;;;;4.20;1.30;;;19.30;99.90;;;;;;4977030;28;20052;-69
2023/06/13 06:01:03;;;;;;;3.67;1.33;;;19.20;99.90;;;;;;4980356;28;20553;-68
2023/06/13 06:03:29;;;;;;;2.35;1.13;;;19.40;99.90;;;;;;4995678;28;20642;-68
2023/06/13 06:05:55;;;;;;;2.78;1.30;;;19.50;99.90;;;;;;4980951;28;20041;-69
2023/06/13 06:08:21;;;;;;;3.72;1.38;;;19.50;99.90;;;;;;4981257;28;20127;-68
2023/06/13 06:10:48;;;;;;;2.40;1.10;;;19.60;99.90;;;;;;4996065;28;20049;-68
2023/06/13 06:13:14;;;;;;;5.22;1.40;;;19.70;99.90;;;;;;4996177;28;20415;-68
2023/06/13 06:15:40;;;;;;;3.38;1.55;;;19.80;99.90;;;;;;4996538;28;20356;-67
2023/06/13 06:18:06;;;;;;;2.35;1.20;;;19.80;99.90;;;;;;4977287;28;20597;-68
2023/06/13 06:20:32;;;;;;;3.25;0.95;;;20.00;99.90;;;;;;5009327;28;20052;-69
2023/06/13 06:22:58;;;;;;;5.35;1.27;;;20.00;99.90;;;;;;4995733;28;20048;-68
2023/06/13 06:25:23;;;;;;;3.08;1.13;;;20.20;99.90;;;;;;4982336;28;20091;-69
2023/06/13 06:27:50;;;;;;;3.50;1.05;;;20.30;99.90;;;;;;4979926;28;20414;-68
2023/06/13 06:30:16;;;;;;;1.92;1.00;;;20.50;99.90;;;;;;4999163;28;20065;-69
2023/06/13 06:32:42;;;;;;;2.45;0.80;;;20.60;99.90;;;;;;4980238;28;20137;-68
2023/06/13 06:35:10;;;;;;;3.80;0.80;;;20.70;99.90;;;;;;4982814;28;20136;-69
2023/06/13 06:37:35;;;;;;;2.53;1.02;;;20.70;99.90;;;;;;4984519;28;20045;-69
2023/06/13 06:40:01;;;;;;;3.50;1.15;;;20.80;99.90;;;;;;4997038;28;20037;-68
2023/06/13 06:42:27;;;;;;;3.95;0.98;;;20.80;99.90;;;;;;5000574;28;20318;-69
2023/06/13 06:44:53;;;;;;;3.70;1.02;;;20.80;99.90;;;;;;4996238;28;20517;-68
2023/06/13 06:47:18;;;;;;;4.50;1.10;;;20.90;99.90;;;;;;4998631;28;20064;-68
2023/06/13 06:49:45;;;;;;;2.50;1.00;;;21.10;99.90;;;;;;5015183;28;20033;-67
2023/06/13 06:52:10;;;;;;;2.50;1.00;;;21.30;99.90;;;;;;4981806;28;20075;-69
2023/06/13 06:54:36;;;;;;;2.47;0.90;;;21.50;99.90;;;;;;4979940;28;20167;-69
2023/06/13 06:57:03;;;;;;;2.97;1.08;;;21.60;99.90;;;;;;4998777;28;20403;-69
2023/06/13 06:59:29;;;;;;;5.72;0.80;;;21.70;99.90;;;;;;4998845;28;20060;-69
2023/06/13 07:01:56;;;;;;;4.10;1.35;;;21.80;99.90;;;;;;4997651;28;20033;-68
2023/06/13 07:04:25;;;;;;;3.30;0.80;;;21.90;99.90;;;;;;4978579;28;20045;-68
2023/06/13 07:06:51;;;;;;;4.75;0.80;;;22.10;99.90;;;;;;4999246;28;20048;-69
2023/06/13 07:09:17;;;;;;;4.43;1.15;;;22.20;99.90;;;;;;5030003;28;20349;-68
2023/06/13 07:11:43;;;;;;;7.50;0.95;;;22.30;99.90;;;;;;4981350;28;20025;-68
2023/06/13 07:14:08;;;;;;;2.88;1.10;;;22.60;99.90;;;;;;5014157;28;20037;-69
2023/06/13 07:16:34;;;;;;;2.63;0.90;;;22.60;99.90;;;;;;4997524;28;20030;-68
2023/06/13 07:19:00;;;;;;;4.97;1.52;;;22.80;99.90;;;;;;4979759;28;20256;-69
2023/06/13 07:21:26;;;;;;;2.35;1.00;;;22.70;99.90;;;;;;5015929;28;20049;-68
2023/06/13 07:23:52;;;;;;;4.78;0.90;;;22.90;99.90;;;;;;4978248;28;20764;-68
2023/06/13 07:26:17;;;;;;;4.95;1.00;;;23.00;99.90;;;;;;4978503;28;20045;-68
2023/06/13 07:28:43;;;;;;;2.72;0.95;;;23.20;99.90;;;;;;4983505;28;20042;-69
2023/06/13 07:31:09;;;;;;;4.82;0.93;;;23.20;99.90;;;;;;4997709;28;20076;-69
2023/06/13 07:33:35;;;;;;;4.82;0.77;;;23.40;99.90;;;;;;4977998;28;20514;-67
2023/06/13 07:36:00;;;;;;;5.28;0.80;;;23.50;99.90;;;;;;5015455;28;20053;-68
2023/06/13 07:38:26;;;;;;;4.63;0.88;;;23.60;99.90;;;;;;4997738;28;20040;-69
2023/06/13 07:40:52;;;;;;;3.83;2.30;;;23.70;99.90;;;;;;5014217;28;20045;-69
2023/06/13 07:43:18;;;;;;;4.68;1.45;;;23.80;99.90;;;;;;4999648;28;20249;-70
2023/06/13 07:45:46;;;;;;;3.25;0.95;;;23.90;99.90;;;;;;4982126;28;20091;-69
2023/06/13 07:48:12;;;;;;;2.58;0.80;;;24.00;99.90;;;;;;4966240;28;20266;-70
2023/06/13 07:50:38;;;;;;;3.15;1.02;;;24.10;99.90;;;;;;4998936;28;20071;-69
2023/06/13 07:53:04;;;;;;;2.53;0.73;;;24.20;99.90;;;;;;4984700;28;20045;-69
2023/06/13 07:55:30;;;;;;;5.78;1.15;;;24.20;99.90;;;;;;4980920;28;20297;-69
2023/06/13 07:57:56;;;;;;;2.83;0.85;;;24.50;99.90;;;;;;4997158;28;20137;-68
2023/06/13 08:00:22;;;;;;;3.92;0.75;;;24.60;99.90;;;;;;4980053;28;20120;-69
2023/06/13 08:02:47;;;;;;;4.78;0.73;;;24.80;99.90;;;;;;4981124;28;20754;-69
2023/06/13 08:05:14;;;;;;;6.20;0.90;;;25.10;99.90;;;;;;4998748;28;20037;-69
2023/06/13 08:07:41;;;;;;;1.55;0.63;;;25.20;99.90;;;;;;4983183;28;20116;-69
2023/06/13 08:10:09;;;;;;;5.50;0.85;;;25.40;99.90;;;;;;4999384;28;20053;-68
2023/06/13 08:12:34;;;;;;;1.77;0.75;;;25.50;99.90;;;;;;4980992;28;20079;-68
2023/06/13 08:15:01;;;;;;;2.03;0.73;;;25.70;99.90;;;;;;4996314;28;20128;-68
2023/06/13 08:17:26;;;;;;;2.97;0.65;;;25.80;99.90;;;;;;4981418;28;20052;-68
2023/06/13 08:19:52;;;;;;;1.88;0.60;;;25.80;99.90;;;;;;4981602;28;20033;-69
2023/06/13 08:22:18;;;;;;;2.13;0.73;;;25.80;99.90;;;;;;4996452;28;20125;-69
2023/06/13 08:24:45;;;;;;;1.70;0.80;;;26.00;99.90;;;;;;4996428;28;20041;-68
2023/06/13 08:27:14;;;;;;;2.03;0.70;;;26.00;99.90;;;;;;4997760;28;20645;-68
2023/06/13 08:29:41;;;;;;;1.50;0.63;;;26.10;99.90;;;;;;4979565;28;20041;-69
2023/06/13 08:32:07;;;;;;;2.85;0.77;;;26.10;99.90;;;;;;4978914;28;20043;-68
2023/06/13 08:34:33;;;;;;;4.13;0.70;;;26.30;99.90;;;;;;4996976;28;20047;-68
2023/06/13 08:36:59;;;;;;;6.28;0.80;;;26.20;99.90;;;;;;5003335;28;20311;-68
2023/06/13 08:39:25;;;;;;;3.38;0.70;;;26.40;99.90;;;;;;4979363;28;20048;-68
2023/06/13 08:41:52;;;;;;;4.25;0.80;;;26.50;99.90;;;;;;4995570;28;20044;-68
2023/06/13 08:44:19;;;;;;;5.30;0.80;;;26.50;99.90;;;;;;4996979;28;20665;-68
2023/06/13 08:46:45;;;;;;;3.60;0.93;;;26.50;99.90;;;;;;4979808;28;20041;-69
2023/06/13 08:49:11;;;;;;;3.50;0.63;;;26.60;99.90;;;;;;4982382;28;20037;-68
2023/06/13 08:51:37;;;;;;;4.55;0.90;;;26.70;99.90;;;;;;4980534;28;20137;-68
2023/06/13 08:54:05;;;;;;;6.93;1.00;;;26.80;99.90;;;;;;4996962;28;20041;-68
2023/06/13 08:56:35;;;;;;;3.55;1.15;;;26.90;99.90;;;;;;4996424;28;20041;-68
2023/06/13 08:59:23;;;;;;;3.45;1.02;;;26.90;99.90;;;;;;4979931;28;20490;-68
2023/06/13 09:01:50;;;;;;;2.90;0.60;;;27.00;99.90;;;;;;4996702;28;20053;-69
2023/06/13 09:04:17;;;;;;;4.65;0.77;;;27.00;99.90;;;;;;5012761;28;20053;-68
2023/06/13 09:06:45;;;;;;;3.88;0.90;;;27.00;99.90;;;;;;4995984;28;20045;-69
2023/06/13 09:09:12;;;;;;;3.90;0.60;;;26.90;99.90;;;;;;4996424;28;20061;-69
2023/06/13 09:11:38;;;;;;;2.40;0.77;;;26.90;99.90;;;;;;4996257;28;20143;-68
2023/06/13 09:14:05;;;;;;;3.50;0.63;;;26.90;99.90;;;;;;5029887;28;20041;-69
2023/06/13 09:16:31;;;;;;;5.45;1.33;;;27.00;99.90;;;;;;4995378;28;20049;-68
2023/06/13 09:18:57;;;;;;;4.32;0.70;;;27.20;99.90;;;;;;4979914;28;20621;-68
2023/06/13 09:21:24;;;;;;;2.97;0.75;;;27.10;99.90;;;;;;4996463;28;20588;-68
2023/06/13 09:23:53;;;;;;;4.72;0.85;;;27.10;99.90;;;;;;4996907;28;20574;-69
2023/06/13 09:26:19;;;;;;;2.53;0.68;;;27.10;99.90;;;;;;4996889;28;20037;-68
2023/06/13 09:28:47;;;;;;;2.78;0.73;;;27.20;99.90;;;;;;4996222;28;20041;-68
2023/06/13 09:31:13;;;;;;;5.07;0.50;;;27.40;99.90;;;;;;4993233;28;20041;-69
2023/06/13 09:33:40;;;;;;;3.30;0.77;;;27.40;99.90;;;;;;5009761;28;20091;-69
2023/06/13 09:36:06;;;;;;;2.63;0.65;;;27.50;99.90;;;;;;4996475;28;20045;-68
2023/06/13 09:38:40;;;;;;;3.97;0.73;;;27.40;99.90;;;;;;4996699;28;20045;-69
2023/06/13 09:41:08;;;;;;;2.53;0.65;;;27.50;99.90;;;;;;4984030;28;20049;-69
2023/06/13 09:43:33;;;;;;;3.10;0.63;;;27.60;99.90;;;;;;4998071;28;20372;-68
2023/06/13 09:46:00;;;;;;;2.67;0.80;;;27.60;99.90;;;;;;4996257;28;20036;-68
2023/06/13 09:48:26;;;;;;;3.20;0.70;;;27.60;99.90;;;;;;4995330;28;20605;-68
2023/06/13 09:50:52;;;;;;;5.00;0.80;;;27.70;99.90;;;;;;4980346;28;20034;-68
2023/06/13 09:53:18;;;;;;;1.75;0.70;;;27.70;99.90;;;;;;4995703;28;20280;-68
2023/06/13 09:55:44;;;;;;;2.70;0.60;;;27.80;99.90;;;;;;4981822;28;20037;-68
2023/06/13 09:58:10;;;;;;;4.20;0.60;;;27.90;99.90;;;;;;4982552;28;20053;-68
2023/06/13 10:00:36;;;;;;;3.83;0.57;;;27.80;99.90;;;;;;4967209;28;20540;-68
2023/06/13 10:03:03;;;;;;;4.20;0.60;;;27.90;99.90;;;;;;4982996;28;20037;-70
2023/06/13 10:05:29;;;;;;;2.65;0.60;;;27.90;99.90;;;;;;4981430;28;20663;-70
2023/06/13 10:07:55;;;;;;;2.70;0.60;;;28.10;99.90;;;;;;4999917;28;20069;-69
2023/06/13 10:10:21;;;;;;;3.90;0.73;;;28.20;99.90;;;;;;5006557;28;20306;-69
2023/06/13 10:12:55;;;;;;;2.58;0.50;;;28.40;99.90;;;;;;4981406;28;20453;-69
2023/06/13 10:15:32;;;;;;;2.67;0.60;;;28.20;99.90;;;;;;4998657;28;20515;-70
2023/06/13 10:18:05;;;;;;;3.80;0.90;;;28.20;99.90;;;;;;5033147;28;20116;-70
2023/06/13 10:20:32;;;;;;;4.47;0.60;;;28.30;99.90;;;;;;5000279;28;20269;-69
2023/06/13 10:22:59;;;;;;;4.82;0.43;;;28.30;99.90;;;;;;4983750;28;20059;-68
2023/06/13 10:25:30;;;;;;;3.67;0.50;;;28.30;99.90;;;;;;5000051;28;20400;-69
2023/06/13 10:28:07;;;;;;;2.67;0.60;;;28.40;99.90;;;;;;4984094;28;20029;-69
2023/06/13 10:30:54;;;;;;;2.17;0.50;;;28.30;99.90;;;;;;5001245;28;20044;-69
2023/06/13 10:33:35;;;;;;;1.65;0.47;;;28.50;99.90;;;;;;5033166;28;20041;-69
2023/06/13 10:36:16;;;;;;;2.10;0.52;;;28.60;99.90;;;;;;4999873;28;20045;-69
2023/06/13 10:39:20;;;;;;;2.05;0.57;;;28.70;99.90;;;;;;5001482;28;20514;-69
2023/06/13 10:41:49;;;;;;;3.83;0.70;;;28.90;99.90;;;;;;5018751;28;20106;-69
2023/06/13 10:44:23;;;;;;;4.78;0.50;;;29.00;99.90;;;;;;5015830;28;20407;-69
2023/06/13 10:46:50;;;;;;;3.75;0.52;;;29.30;99.90;;;;;;4997031;28;20044;-69
2023/06/13 10:49:15;;;;;;;2.85;0.68;;;29.30;99.90;;;;;;5031964;28;20040;-69
2023/06/13 10:51:45;;;;;;;2.65;0.50;;;29.60;99.90;;;;;;5032646;28;20416;-70
2023/06/13 10:54:13;;;;;;;3.10;0.45;;;29.50;99.90;;;;;;4999698;28;20083;-70
2023/06/13 10:56:42;;;;;;;2.72;0.57;;;29.30;99.90;;;;;;5002125;28;20103;-70
2023/06/13 10:59:19;;;;;;;2.05;0.50;;;29.20;99.90;;;;;;5000776;28;20088;-70
2023/06/13 11:01:45;;;;;;;2.72;0.60;;;29.10;99.90;;;;;;4998934;28;20617;-71
2023/06/13 11:04:19;;;;;;;3.08;0.40;;;28.90;99.90;;;;;;5013692;28;20067;-70
2023/06/13 11:06:47;;;;;;;2.58;0.95;;;28.90;99.90;;;;;;5029524;28;20275;-69
2023/06/13 11:09:21;;;;;;;3.53;0.70;;;28.90;99.90;;;;;;5029472;28;20389;-69
2023/06/13 11:11:52;;;;;;;2.22;0.50;;;29.10;99.90;;;;;;4998805;28;20499;-70
2023/06/13 11:14:37;;;;;;;2.27;0.60;;;28.90;99.90;;;;;;5000221;28;20064;-70
2023/06/13 11:17:05;;;;;;;4.10;0.60;;;28.90;99.90;;;;;;5020867;28;20287;-69
2023/06/13 11:19:33;;;;;;;1.88;0.45;;;28.80;99.90;;;;;;5005010;28;20041;-69
2023/06/13 11:21:59;;;;;;;3.35;0.60;;;28.80;99.90;;;;;;5000662;28;20053;-70
2023/06/13 11:24:27;;;;;;;4.75;0.50;;;28.60;99.90;;;;;;5000052;28;20041;-69
2023/06/13 11:26:56;;;;;;;2.58;0.60;;;28.80;99.90;;;;;;5001270;28;20045;-70
2023/06/13 11:29:22;;;;;;;2.72;0.50;;;29.00;99.90;;;;;;4999688;28;20041;-70
2023/06/13 11:31:52;;;;;;;4.00;0.50;;;29.20;99.90;;;;;;4999649;28;20593;-70
2023/06/13 11:34:20;;;;;;;3.03;0.55;;;29.20;99.90;;;;;;4999138;28;20052;-69
2023/06/13 11:36:46;;;;;;;2.08;0.70;;;29.10;99.90;;;;;;4983809;28;20568;-70
2023/06/13 11:39:13;;;;;;;2.80;0.50;;;29.10;99.90;;;;;;5000668;28;20041;-69
2023/06/13 11:41:39;;;;;;;6.72;1.00;;;29.40;99.90;;;;;;5001042;28;20045;-70
2023/06/13 11:44:06;;;;;;;9.23;0.98;;;29.60;99.90;;;;;;5002865;28;20077;-70
2023/06/13 11:46:32;;;;;;;4.07;0.47;;;29.60;99.90;;;;;;5000053;28;20037;-71
2023/06/13 11:48:58;;;;;;;2.63;0.50;;;29.40;99.90;;;;;;4983930;28;20117;-69
2023/06/13 11:51:28;;;;;;;4.78;0.80;;;28.90;99.90;;;;;;5001164;28;20049;-70
2023/06/13 11:54:00;;;;;;;3.63;0.50;;;28.70;99.90;;;;;;5017766;28;20045;-69
2023/06/13 11:56:27;;;;;;;3.78;0.50;;;28.70;99.90;;;;;;5002081;28;20044;-70
2023/06/13 11:58:55;;;;;;;4.28;0.55;;;28.60;99.90;;;;;;4983768;28;20037;-69
2023/06/13 12:01:24;;;;;;;2.40;0.40;;;28.60;99.90;;;;;;4999574;28;20053;-71
2023/06/13 12:03:50;;;;;;;1.27;0.50;;;28.70;99.90;;;;;;5017711;28;20514;-70
2023/06/13 12:06:17;;;;;;;2.08;0.52;;;28.90;99.90;;;;;;4999193;28;20775;-70
2023/06/13 12:08:47;;;;;;;4.70;0.70;;;29.10;99.90;;;;;;5034925;28;20119;-70
2023/06/13 12:11:19;;;;;;;4.20;0.52;;;29.00;99.90;;;;;;4998817;28;20578;-70
2023/06/13 12:13:55;;;;;;;2.83;0.60;;;28.90;99.90;;;;;;4998184;28;20077;-70
2023/06/13 12:16:24;;;;;;;3.03;0.40;;;29.00;99.90;;;;;;4983921;28;20280;-69
2023/06/13 12:18:54;;;;;;;1.85;0.60;;;29.10;99.90;;;;;;4998278;28;20571;-69
2023/06/13 12:21:27;;;;;;;1.55;0.38;;;29.00;99.90;;;;;;4981318;28;20543;-69
2023/06/13 12:23:54;;;;;;;5.20;0.80;;;28.80;99.90;;;;;;5011174;28;20322;-69
2023/06/13 12:26:21;;;;;;;3.00;0.70;;;28.70;99.90;;;;;;4998125;28;20121;-69
2023/06/13 12:28:47;;;;;;;1.88;0.50;;;28.80;99.90;;;;;;4997238;28;20216;-69
2023/06/13 12:31:14;;;;;;;1.75;0.50;;;29.10;99.90;;;;;;5013586;28;20106;-69
2023/06/13 12:33:41;;;;;;;2.78;0.60;;;29.10;99.90;;;;;;4981659;28;20069;-69
2023/06/13 12:36:09;;;;;;;1.33;0.50;;;29.00;99.90;;;;;;4993867;28;20277;-68
2023/06/13 12:38:35;;;;;;;4.45;0.57;;;28.90;99.90;;;;;;5003393;28;20538;-69
2023/06/13 12:41:11;;;;;;;2.63;0.47;;;29.00;99.90;;;;;;5000346;28;20102;-69
2023/06/13 12:43:42;;;;;;;3.13;0.52;;;29.00;99.90;;;;;;4997937;28;20451;-70
2023/06/13 12:46:08;;;;;;;1.83;0.60;;;29.00;99.90;;;;;;5011912;28;20559;-69
2023/06/13 12:48:38;;;;;;;1.85;0.50;;;28.80;99.90;;;;;;4982038;28;20033;-70
2023/06/13 12:51:06;;;;;;;1.42;0.45;;;28.70;99.90;;;;;;4998895;28;20046;-69